sensor_id;sensor_type;location;lat;lon;timestamp;P1;durP1;ratioP1;P2;durP2;ratioP2
2966;SDS011;1493;51.496;7.210;2022-12-18T00:01:23;15.32;;;7.40;;
2966;SDS011;1493;51.496;7.210;2022-12-18T00:03:51;11.90;;;7.78;;
2966;SDS011;1493;51.496;7.210;2022-12-18T00:06:19;12.75;;;6.50;;
2966;SDS011;1493;51.496;7.210;2022-12-18T00:08:46;16.20;;;6.82;;
2966;SDS011;1493;51.496;7.210;2022-12-18T00:11:18;13.07;;;7.45;;
2966;SDS011;1493;51.496;7.210;2022-12-18T00:13:46;11.68;;;6.63;;
2966;SDS011;1493;51.496;7.210;2022-12-18T00:16:14;11.80;;;7.32;;
2966;SDS011;1493;51.496;7.210;2022-12-18T00:18:45;10.50;;;6.28;;
2966;SDS011;1493;51.496;7.210;2022-12-18T00:21:13;11.20;;;7.70;;
2966;SDS011;1493;51.496;7.210;2022-12-18T00:23:41;13.13;;;7.55;;
2966;SDS011;1493;51.496;7.210;2022-12-18T00:26:15;13.60;;;6.43;;
2966;SDS011;1493;51.496;7.210;2022-12-18T00:28:43;14.18;;;7.03;;
2966;SDS011;1493;51.496;7.210;2022-12-18T00:31:11;15.77;;;7.30;;
2966;SDS011;1493;51.496;7.210;2022-12-18T00:33:39;13.02;;;7.32;;
2966;SDS011;1493;51.496;7.210;2022-12-18T00:36:07;12.13;;;6.65;;
2966;SDS011;1493;51.496;7.210;2022-12-18T00:38:36;15.40;;;8.10;;
2966;SDS011;1493;51.496;7.210;2022-12-18T00:41:03;13.40;;;8.85;;
2966;SDS011;1493;51.496;7.210;2022-12-18T00:43:34;18.55;;;8.85;;
2966;SDS011;1493;51.496;7.210;2022-12-18T00:46:00;15.80;;;8.25;;
2966;SDS011;1493;51.496;7.210;2022-12-18T00:48:27;10.40;;;7.50;;
2966;SDS011;1493;51.496;7.210;2022-12-18T00:50:54;17.90;;;8.60;;
2966;SDS011;1493;51.496;7.210;2022-12-18T00:53:20;13.13;;;6.80;;
2966;SDS011;1493;51.496;7.210;2022-12-18T00:55:47;12.00;;;7.47;;
2966;SDS011;1493;51.496;7.210;2022-12-18T00:58:15;11.27;;;6.97;;
2966;SDS011;1493;51.496;7.210;2022-12-18T01:00:44;14.20;;;7.55;;
2966;SDS011;1493;51.496;7.210;2022-12-18T01:03:12;13.73;;;8.23;;
2966;SDS011;1493;51.496;7.210;2022-12-18T01:05:40;13.50;;;7.28;;
2966;SDS011;1493;51.496;7.210;2022-12-18T01:08:07;13.73;;;7.18;;
2966;SDS011;1493;51.496;7.210;2022-12-18T01:10:34;12.48;;;7.55;;
2966;SDS011;1493;51.496;7.210;2022-12-18T01:13:01;14.32;;;7.10;;
2966;SDS011;1493;51.496;7.210;2022-12-18T01:15:28;14.77;;;7.78;;
2966;SDS011;1493;51.496;7.210;2022-12-18T01:17:56;16.05;;;7.30;;
2966;SDS011;1493;51.496;7.210;2022-12-18T01:20:23;10.13;;;6.07;;
2966;SDS011;1493;51.496;7.210;2022-12-18T01:22:50;12.75;;;6.85;;
2966;SDS011;1493;51.496;7.210;2022-12-18T01:25:16;14.35;;;7.13;;
2966;SDS011;1493;51.496;7.210;2022-12-18T01:27:43;14.18;;;7.25;;
2966;SDS011;1493;51.496;7.210;2022-12-18T01:30:10;14.50;;;7.47;;
2966;SDS011;1493;51.496;7.210;2022-12-18T01:32:38;12.15;;;7.07;;
2966;SDS011;1493;51.496;7.210;2022-12-18T01:35:06;10.13;;;6.80;;
2966;SDS011;1493;51.496;7.210;2022-12-18T01:37:33;15.63;;;7.97;;
2966;SDS011;1493;51.496;7.210;2022-12-18T01:40:00;10.55;;;6.40;;
2966;SDS011;1493;51.496;7.210;2022-12-18T01:42:27;16.02;;;8.35;;
2966;SDS011;1493;51.496;7.210;2022-12-18T01:44:59;14.52;;;7.13;;
2966;SDS011;1493;51.496;7.210;2022-12-18T01:47:29;8.20;;;6.43;;
2966;SDS011;1493;51.496;7.210;2022-12-18T01:49:59;11.57;;;6.53;;
2966;SDS011;1493;51.496;7.210;2022-12-18T01:52:30;10.02;;;5.72;;
2966;SDS011;1493;51.496;7.210;2022-12-18T01:54:58;11.50;;;6.50;;
2966;SDS011;1493;51.496;7.210;2022-12-18T01:57:26;9.65;;;6.32;;
2966;SDS011;1493;51.496;7.210;2022-12-18T01:59:55;14.40;;;6.90;;
2966;SDS011;1493;51.496;7.210;2022-12-18T02:02:26;18.67;;;6.65;;
2966;SDS011;1493;51.496;7.210;2022-12-18T02:04:54;13.38;;;7.25;;
2966;SDS011;1493;51.496;7.210;2022-12-18T02:07:23;15.20;;;7.30;;
2966;SDS011;1493;51.496;7.210;2022-12-18T02:09:57;10.65;;;6.85;;
2966;SDS011;1493;51.496;7.210;2022-12-18T02:12:28;12.57;;;5.57;;
2966;SDS011;1493;51.496;7.210;2022-12-18T02:15:02;11.95;;;6.40;;
2966;SDS011;1493;51.496;7.210;2022-12-18T02:17:34;11.75;;;5.72;;
2966;SDS011;1493;51.496;7.210;2022-12-18T02:20:09;12.05;;;5.72;;
2966;SDS011;1493;51.496;7.210;2022-12-18T02:22:44;12.73;;;6.30;;
2966;SDS011;1493;51.496;7.210;2022-12-18T02:25:24;8.88;;;5.80;;
2966;SDS011;1493;51.496;7.210;2022-12-18T02:28:02;7.50;;;5.32;;
2966;SDS011;1493;51.496;7.210;2022-12-18T02:30:32;11.45;;;5.15;;
2966;SDS011;1493;51.496;7.210;2022-12-18T02:33:01;10.93;;;5.38;;
2966;SDS011;1493;51.496;7.210;2022-12-18T02:35:32;9.77;;;5.90;;
2966;SDS011;1493;51.496;7.210;2022-12-18T02:38:00;9.30;;;5.95;;
2966;SDS011;1493;51.496;7.210;2022-12-18T02:40:29;9.35;;;5.60;;
2966;SDS011;1493;51.496;7.210;2022-12-18T02:43:03;7.63;;;4.70;;
2966;SDS011;1493;51.496;7.210;2022-12-18T02:45:33;9.85;;;5.70;;
2966;SDS011;1493;51.496;7.210;2022-12-18T02:48:00;11.85;;;6.32;;
2966;SDS011;1493;51.496;7.210;2022-12-18T02:50:30;11.85;;;5.40;;
2966;SDS011;1493;51.496;7.210;2022-12-18T02:53:02;11.07;;;5.75;;
2966;SDS011;1493;51.496;7.210;2022-12-18T02:55:45;10.48;;;5.40;;
2966;SDS011;1493;51.496;7.210;2022-12-18T02:58:21;12.25;;;6.20;;
2966;SDS011;1493;51.496;7.210;2022-12-18T03:00:58;9.77;;;5.30;;
2966;SDS011;1493;51.496;7.210;2022-12-18T03:03:31;10.20;;;5.10;;
2966;SDS011;1493;51.496;7.210;2022-12-18T03:06:04;8.48;;;5.20;;
2966;SDS011;1493;51.496;7.210;2022-12-18T03:08:36;12.52;;;5.80;;
2966;SDS011;1493;51.496;7.210;2022-12-18T03:11:06;10.00;;;5.10;;
2966;SDS011;1493;51.496;7.210;2022-12-18T03:13:36;10.18;;;5.68;;
2966;SDS011;1493;51.496;7.210;2022-12-18T03:16:07;14.40;;;6.30;;
2966;SDS011;1493;51.496;7.210;2022-12-18T03:18:38;12.57;;;5.82;;
2966;SDS011;1493;51.496;7.210;2022-12-18T03:21:09;11.85;;;5.50;;
2966;SDS011;1493;51.496;7.210;2022-12-18T03:23:39;13.20;;;6.50;;
2966;SDS011;1493;51.496;7.210;2022-12-18T03:26:09;11.90;;;6.20;;
2966;SDS011;1493;51.496;7.210;2022-12-18T03:28:42;11.05;;;5.00;;
2966;SDS011;1493;51.496;7.210;2022-12-18T03:31:14;8.30;;;5.10;;
2966;SDS011;1493;51.496;7.210;2022-12-18T03:33:41;10.73;;;4.80;;
2966;SDS011;1493;51.496;7.210;2022-12-18T03:36:12;12.57;;;5.25;;
2966;SDS011;1493;51.496;7.210;2022-12-18T03:38:39;5.68;;;4.28;;
2966;SDS011;1493;51.496;7.210;2022-12-18T03:41:07;7.22;;;5.15;;
2966;SDS011;1493;51.496;7.210;2022-12-18T03:43:45;10.48;;;5.57;;
2966;SDS011;1493;51.496;7.210;2022-12-18T03:46:18;10.25;;;5.13;;
2966;SDS011;1493;51.496;7.210;2022-12-18T03:48:51;10.45;;;4.90;;
2966;SDS011;1493;51.496;7.210;2022-12-18T03:51:24;11.80;;;6.40;;
2966;SDS011;1493;51.496;7.210;2022-12-18T03:53:55;9.93;;;5.70;;
2966;SDS011;1493;51.496;7.210;2022-12-18T03:56:25;10.98;;;5.43;;
2966;SDS011;1493;51.496;7.210;2022-12-18T03:58:57;7.90;;;4.35;;
2966;SDS011;1493;51.496;7.210;2022-12-18T04:01:28;8.65;;;4.65;;
2966;SDS011;1493;51.496;7.210;2022-12-18T04:03:59;8.98;;;5.50;;
2966;SDS011;1493;51.496;7.210;2022-12-18T04:06:27;6.05;;;4.25;;
2966;SDS011;1493;51.496;7.210;2022-12-18T04:08:54;10.90;;;5.80;;
2966;SDS011;1493;51.496;7.210;2022-12-18T04:11:23;10.23;;;5.18;;
2966;SDS011;1493;51.496;7.210;2022-12-18T04:13:50;11.80;;;5.38;;
2966;SDS011;1493;51.496;7.210;2022-12-18T04:16:22;12.55;;;5.80;;
2966;SDS011;1493;51.496;7.210;2022-12-18T04:18:49;7.28;;;5.15;;
2966;SDS011;1493;51.496;7.210;2022-12-18T04:21:16;10.23;;;4.85;;
2966;SDS011;1493;51.496;7.210;2022-12-18T04:23:42;10.73;;;6.10;;
2966;SDS011;1493;51.496;7.210;2022-12-18T04:26:09;9.27;;;6.45;;
2966;SDS011;1493;51.496;7.210;2022-12-18T04:28:36;11.43;;;5.10;;
2966;SDS011;1493;51.496;7.210;2022-12-18T04:31:03;11.35;;;6.50;;
2966;SDS011;1493;51.496;7.210;2022-12-18T04:33:31;13.02;;;5.43;;
2966;SDS011;1493;51.496;7.210;2022-12-18T04:35:58;11.93;;;6.72;;
2966;SDS011;1493;51.496;7.210;2022-12-18T04:38:25;9.48;;;4.63;;
2966;SDS011;1493;51.496;7.210;2022-12-18T04:40:52;9.80;;;5.20;;
2966;SDS011;1493;51.496;7.210;2022-12-18T04:43:18;8.80;;;5.15;;
2966;SDS011;1493;51.496;7.210;2022-12-18T04:45:45;9.65;;;5.07;;
2966;SDS011;1493;51.496;7.210;2022-12-18T04:48:12;10.95;;;5.85;;
2966;SDS011;1493;51.496;7.210;2022-12-18T04:50:40;10.38;;;5.82;;
2966;SDS011;1493;51.496;7.210;2022-12-18T04:53:07;13.93;;;5.28;;
2966;SDS011;1493;51.496;7.210;2022-12-18T04:55:34;8.80;;;5.07;;
2966;SDS011;1493;51.496;7.210;2022-12-18T04:58:00;11.90;;;5.57;;
2966;SDS011;1493;51.496;7.210;2022-12-18T05:00:27;6.90;;;5.28;;
2966;SDS011;1493;51.496;7.210;2022-12-18T05:02:54;7.07;;;5.13;;
2966;SDS011;1493;51.496;7.210;2022-12-18T05:05:21;8.18;;;5.20;;
2966;SDS011;1493;51.496;7.210;2022-12-18T05:07:49;10.20;;;5.50;;
2966;SDS011;1493;51.496;7.210;2022-12-18T05:10:16;10.20;;;5.43;;
2966;SDS011;1493;51.496;7.210;2022-12-18T05:12:42;11.00;;;6.07;;
2966;SDS011;1493;51.496;7.210;2022-12-18T05:15:36;11.18;;;4.88;;
2966;SDS011;1493;51.496;7.210;2022-12-18T05:18:03;8.07;;;4.50;;
2966;SDS011;1493;51.496;7.210;2022-12-18T05:20:30;8.85;;;4.47;;
2966;SDS011;1493;51.496;7.210;2022-12-18T05:22:57;9.32;;;4.95;;
2966;SDS011;1493;51.496;7.210;2022-12-18T05:25:24;7.47;;;4.75;;
2966;SDS011;1493;51.496;7.210;2022-12-18T05:27:51;8.80;;;4.70;;
2966;SDS011;1493;51.496;7.210;2022-12-18T05:30:17;8.05;;;5.47;;
2966;SDS011;1493;51.496;7.210;2022-12-18T05:32:45;7.75;;;4.88;;
2966;SDS011;1493;51.496;7.210;2022-12-18T05:35:12;8.90;;;4.80;;
2966;SDS011;1493;51.496;7.210;2022-12-18T05:37:39;9.45;;;5.43;;
2966;SDS011;1493;51.496;7.210;2022-12-18T05:40:06;9.90;;;5.18;;
2966;SDS011;1493;51.496;7.210;2022-12-18T05:42:34;8.05;;;3.72;;
2966;SDS011;1493;51.496;7.210;2022-12-18T05:45:01;8.57;;;5.47;;
2966;SDS011;1493;51.496;7.210;2022-12-18T05:47:28;11.00;;;5.38;;
2966;SDS011;1493;51.496;7.210;2022-12-18T05:49:56;8.50;;;5.15;;
2966;SDS011;1493;51.496;7.210;2022-12-18T05:52:23;8.98;;;5.13;;
2966;SDS011;1493;51.496;7.210;2022-12-18T05:54:50;7.93;;;4.72;;
2966;SDS011;1493;51.496;7.210;2022-12-18T05:57:17;7.03;;;4.97;;
2966;SDS011;1493;51.496;7.210;2022-12-18T05:59:44;9.07;;;5.30;;
2966;SDS011;1493;51.496;7.210;2022-12-18T06:02:10;12.05;;;6.53;;
2966;SDS011;1493;51.496;7.210;2022-12-18T06:04:37;8.88;;;5.18;;
2966;SDS011;1493;51.496;7.210;2022-12-18T06:07:05;9.85;;;5.28;;
2966;SDS011;1493;51.496;7.210;2022-12-18T06:09:32;9.25;;;6.22;;
2966;SDS011;1493;51.496;7.210;2022-12-18T06:11:59;10.05;;;5.95;;
2966;SDS011;1493;51.496;7.210;2022-12-18T06:14:26;9.23;;;4.88;;
2966;SDS011;1493;51.496;7.210;2022-12-18T06:16:53;9.15;;;4.65;;
2966;SDS011;1493;51.496;7.210;2022-12-18T06:19:20;8.48;;;4.75;;
2966;SDS011;1493;51.496;7.210;2022-12-18T06:21:46;8.25;;;5.20;;
2966;SDS011;1493;51.496;7.210;2022-12-18T06:24:15;10.63;;;6.25;;
2966;SDS011;1493;51.496;7.210;2022-12-18T06:26:42;10.43;;;5.82;;
2966;SDS011;1493;51.496;7.210;2022-12-18T06:31:47;9.65;;;5.80;;
2966;SDS011;1493;51.496;7.210;2022-12-18T06:34:15;9.32;;;5.70;;
2966;SDS011;1493;51.496;7.210;2022-12-18T06:36:42;11.63;;;6.05;;
2966;SDS011;1493;51.496;7.210;2022-12-18T06:39:09;11.05;;;6.28;;
2966;SDS011;1493;51.496;7.210;2022-12-18T06:41:37;9.98;;;5.80;;
2966;SDS011;1493;51.496;7.210;2022-12-18T06:44:04;12.50;;;6.95;;
2966;SDS011;1493;51.496;7.210;2022-12-18T06:46:30;13.35;;;6.90;;
2966;SDS011;1493;51.496;7.210;2022-12-18T06:48:58;15.77;;;6.45;;
2966;SDS011;1493;51.496;7.210;2022-12-18T06:51:24;21.08;;;7.65;;
2966;SDS011;1493;51.496;7.210;2022-12-18T06:53:51;12.50;;;7.18;;
2966;SDS011;1493;51.496;7.210;2022-12-18T06:56:18;14.23;;;6.95;;
2966;SDS011;1493;51.496;7.210;2022-12-18T06:58:46;9.50;;;6.07;;
2966;SDS011;1493;51.496;7.210;2022-12-18T07:01:16;14.88;;;8.35;;
2966;SDS011;1493;51.496;7.210;2022-12-18T07:03:43;11.43;;;7.00;;
2966;SDS011;1493;51.496;7.210;2022-12-18T07:06:13;13.93;;;7.10;;
2966;SDS011;1493;51.496;7.210;2022-12-18T07:08:40;18.27;;;7.75;;
2966;SDS011;1493;51.496;7.210;2022-12-18T07:11:07;12.80;;;6.32;;
2966;SDS011;1493;51.496;7.210;2022-12-18T07:13:34;16.08;;;9.35;;
2966;SDS011;1493;51.496;7.210;2022-12-18T07:16:07;8.85;;;6.05;;
2966;SDS011;1493;51.496;7.210;2022-12-18T07:18:35;12.15;;;6.40;;
2966;SDS011;1493;51.496;7.210;2022-12-18T07:21:02;12.80;;;6.22;;
2966;SDS011;1493;51.496;7.210;2022-12-18T07:23:31;10.85;;;6.85;;
2966;SDS011;1493;51.496;7.210;2022-12-18T07:26:00;17.88;;;8.00;;
2966;SDS011;1493;51.496;7.210;2022-12-18T07:28:28;9.85;;;5.63;;
2966;SDS011;1493;51.496;7.210;2022-12-18T07:30:55;11.73;;;6.85;;
2966;SDS011;1493;51.496;7.210;2022-12-18T07:33:23;8.85;;;6.18;;
2966;SDS011;1493;51.496;7.210;2022-12-18T07:35:50;11.30;;;6.18;;
2966;SDS011;1493;51.496;7.210;2022-12-18T07:38:17;11.80;;;6.57;;
2966;SDS011;1493;51.496;7.210;2022-12-18T07:40:44;13.13;;;7.35;;
2966;SDS011;1493;51.496;7.210;2022-12-18T07:43:11;9.02;;;6.10;;
2966;SDS011;1493;51.496;7.210;2022-12-18T07:45:37;15.90;;;7.90;;
2966;SDS011;1493;51.496;7.210;2022-12-18T07:48:04;11.20;;;6.63;;
2966;SDS011;1493;51.496;7.210;2022-12-18T07:50:32;10.68;;;5.68;;
2966;SDS011;1493;51.496;7.210;2022-12-18T07:52:59;12.60;;;7.00;;
2966;SDS011;1493;51.496;7.210;2022-12-18T07:55:28;14.20;;;7.05;;
2966;SDS011;1493;51.496;7.210;2022-12-18T07:57:55;12.85;;;6.32;;
2966;SDS011;1493;51.496;7.210;2022-12-18T08:00:22;9.00;;;6.05;;
2966;SDS011;1493;51.496;7.210;2022-12-18T08:02:49;10.20;;;6.00;;
2966;SDS011;1493;51.496;7.210;2022-12-18T08:05:15;11.20;;;8.27;;
2966;SDS011;1493;51.496;7.210;2022-12-18T08:07:44;14.15;;;8.20;;
2966;SDS011;1493;51.496;7.210;2022-12-18T08:10:11;15.65;;;7.78;;
2966;SDS011;1493;51.496;7.210;2022-12-18T08:12:38;14.25;;;8.60;;
2966;SDS011;1493;51.496;7.210;2022-12-18T08:15:06;11.48;;;7.80;;
2966;SDS011;1493;51.496;7.210;2022-12-18T08:17:33;17.80;;;9.98;;
2966;SDS011;1493;51.496;7.210;2022-12-18T08:20:00;15.07;;;9.38;;
2966;SDS011;1493;51.496;7.210;2022-12-18T08:22:27;17.23;;;9.73;;
2966;SDS011;1493;51.496;7.210;2022-12-18T08:24:55;18.35;;;10.10;;
2966;SDS011;1493;51.496;7.210;2022-12-18T08:27:22;16.38;;;9.38;;
2966;SDS011;1493;51.496;7.210;2022-12-18T08:29:49;18.63;;;9.02;;
2966;SDS011;1493;51.496;7.210;2022-12-18T08:32:15;12.95;;;8.65;;
2966;SDS011;1493;51.496;7.210;2022-12-18T08:34:42;15.93;;;8.90;;
2966;SDS011;1493;51.496;7.210;2022-12-18T08:37:09;17.92;;;9.48;;
2966;SDS011;1493;51.496;7.210;2022-12-18T08:39:36;16.85;;;9.98;;
2966;SDS011;1493;51.496;7.210;2022-12-18T08:42:04;12.85;;;8.75;;
2966;SDS011;1493;51.496;7.210;2022-12-18T08:44:48;18.15;;;11.18;;
2966;SDS011;1493;51.496;7.210;2022-12-18T08:47:16;18.20;;;10.02;;
2966;SDS011;1493;51.496;7.210;2022-12-18T08:49:43;19.02;;;10.27;;
2966;SDS011;1493;51.496;7.210;2022-12-18T08:52:10;16.33;;;9.38;;
2966;SDS011;1493;51.496;7.210;2022-12-18T08:54:37;12.85;;;9.00;;
2966;SDS011;1493;51.496;7.210;2022-12-18T08:57:05;19.30;;;8.45;;
2966;SDS011;1493;51.496;7.210;2022-12-18T08:59:32;15.70;;;9.43;;
2966;SDS011;1493;51.496;7.210;2022-12-18T09:01:58;13.35;;;8.70;;
2966;SDS011;1493;51.496;7.210;2022-12-18T09:04:25;16.23;;;8.48;;
2966;SDS011;1493;51.496;7.210;2022-12-18T09:06:55;13.88;;;8.63;;
2966;SDS011;1493;51.496;7.210;2022-12-18T09:09:22;14.60;;;9.35;;
2966;SDS011;1493;51.496;7.210;2022-12-18T09:11:49;12.95;;;8.45;;
2966;SDS011;1493;51.496;7.210;2022-12-18T09:14:17;17.58;;;11.38;;
2966;SDS011;1493;51.496;7.210;2022-12-18T09:16:44;14.85;;;8.68;;
2966;SDS011;1493;51.496;7.210;2022-12-18T09:19:11;17.77;;;10.63;;
2966;SDS011;1493;51.496;7.210;2022-12-18T09:21:40;17.90;;;10.90;;
2966;SDS011;1493;51.496;7.210;2022-12-18T09:24:08;18.45;;;12.20;;
2966;SDS011;1493;51.496;7.210;2022-12-18T09:26:39;21.30;;;12.95;;
2966;SDS011;1493;51.496;7.210;2022-12-18T09:29:09;19.27;;;12.20;;
2966;SDS011;1493;51.496;7.210;2022-12-18T09:31:37;22.73;;;12.82;;
2966;SDS011;1493;51.496;7.210;2022-12-18T09:34:04;18.70;;;12.55;;
2966;SDS011;1493;51.496;7.210;2022-12-18T09:36:31;21.20;;;13.93;;
2966;SDS011;1493;51.496;7.210;2022-12-18T09:38:58;21.00;;;13.55;;
2966;SDS011;1493;51.496;7.210;2022-12-18T09:41:30;21.35;;;14.55;;
2966;SDS011;1493;51.496;7.210;2022-12-18T09:44:05;18.50;;;12.95;;
2966;SDS011;1493;51.496;7.210;2022-12-18T09:46:43;22.00;;;13.70;;
2966;SDS011;1493;51.496;7.210;2022-12-18T09:49:16;24.95;;;12.85;;
2966;SDS011;1493;51.496;7.210;2022-12-18T09:51:49;22.50;;;12.60;;
2966;SDS011;1493;51.496;7.210;2022-12-18T09:54:20;23.88;;;13.23;;
2966;SDS011;1493;51.496;7.210;2022-12-18T09:56:50;20.15;;;13.90;;
2966;SDS011;1493;51.496;7.210;2022-12-18T09:59:18;12.60;;;8.65;;
2966;SDS011;1493;51.496;7.210;2022-12-18T10:01:52;18.80;;;8.93;;
2966;SDS011;1493;51.496;7.210;2022-12-18T10:04:19;14.07;;;8.95;;
2966;SDS011;1493;51.496;7.210;2022-12-18T10:06:47;11.88;;;7.55;;
2966;SDS011;1493;51.496;7.210;2022-12-18T10:09:21;13.85;;;8.73;;
2966;SDS011;1493;51.496;7.210;2022-12-18T10:11:56;11.98;;;7.25;;
2966;SDS011;1493;51.496;7.210;2022-12-18T10:14:33;15.02;;;7.93;;
2966;SDS011;1493;51.496;7.210;2022-12-18T10:17:07;9.90;;;6.07;;
2966;SDS011;1493;51.496;7.210;2022-12-18T10:19:44;7.25;;;4.53;;
2966;SDS011;1493;51.496;7.210;2022-12-18T10:22:19;8.68;;;5.32;;
2966;SDS011;1493;51.496;7.210;2022-12-18T10:24:53;10.85;;;5.55;;
2966;SDS011;1493;51.496;7.210;2022-12-18T10:27:26;7.38;;;4.85;;
2966;SDS011;1493;51.496;7.210;2022-12-18T10:29:54;9.20;;;3.70;;
2966;SDS011;1493;51.496;7.210;2022-12-18T10:32:24;7.70;;;3.92;;
2966;SDS011;1493;51.496;7.210;2022-12-18T10:34:53;5.40;;;3.50;;
2966;SDS011;1493;51.496;7.210;2022-12-18T10:37:22;4.72;;;2.95;;
2966;SDS011;1493;51.496;7.210;2022-12-18T10:40:04;7.05;;;4.20;;
2966;SDS011;1493;51.496;7.210;2022-12-18T10:42:37;5.85;;;3.17;;
2966;SDS011;1493;51.496;7.210;2022-12-18T10:45:08;7.22;;;2.67;;
2966;SDS011;1493;51.496;7.210;2022-12-18T10:47:40;4.50;;;2.80;;
2966;SDS011;1493;51.496;7.210;2022-12-18T10:50:15;4.47;;;2.53;;
2966;SDS011;1493;51.496;7.210;2022-12-18T10:52:54;6.10;;;3.63;;
2966;SDS011;1493;51.496;7.210;2022-12-18T10:55:22;10.90;;;5.22;;
2966;SDS011;1493;51.496;7.210;2022-12-18T10:57:49;11.60;;;7.00;;
2966;SDS011;1493;51.496;7.210;2022-12-18T11:00:24;21.83;;;11.77;;
2966;SDS011;1493;51.496;7.210;2022-12-18T11:02:55;22.73;;;11.07;;
2966;SDS011;1493;51.496;7.210;2022-12-18T11:05:24;29.95;;;14.23;;
2966;SDS011;1493;51.496;7.210;2022-12-18T11:07:53;23.03;;;13.70;;
2966;SDS011;1493;51.496;7.210;2022-12-18T11:10:21;21.70;;;13.13;;
2966;SDS011;1493;51.496;7.210;2022-12-18T11:12:52;18.48;;;13.13;;
2966;SDS011;1493;51.496;7.210;2022-12-18T11:15:19;20.23;;;12.30;;
2966;SDS011;1493;51.496;7.210;2022-12-18T11:17:48;19.17;;;12.80;;
2966;SDS011;1493;51.496;7.210;2022-12-18T11:20:22;22.03;;;12.10;;
2966;SDS011;1493;51.496;7.210;2022-12-18T11:22:57;20.93;;;12.33;;
2966;SDS011;1493;51.496;7.210;2022-12-18T11:25:25;22.37;;;13.23;;
2966;SDS011;1493;51.496;7.210;2022-12-18T11:27:55;20.10;;;12.97;;
2966;SDS011;1493;51.496;7.210;2022-12-18T11:30:25;21.97;;;12.67;;
2966;SDS011;1493;51.496;7.210;2022-12-18T11:32:56;21.90;;;12.87;;
2966;SDS011;1493;51.496;7.210;2022-12-18T11:35:32;19.77;;;13.37;;
2966;SDS011;1493;51.496;7.210;2022-12-18T11:38:05;23.60;;;14.60;;
2966;SDS011;1493;51.496;7.210;2022-12-18T11:40:40;22.93;;;15.20;;
2966;SDS011;1493;51.496;7.210;2022-12-18T11:43:10;16.40;;;13.10;;
2966;SDS011;1493;51.496;7.210;2022-12-18T11:45:41;18.50;;;12.47;;
2966;SDS011;1493;51.496;7.210;2022-12-18T11:48:17;23.63;;;12.80;;
2966;SDS011;1493;51.496;7.210;2022-12-18T11:50:50;20.10;;;13.30;;
2966;SDS011;1493;51.496;7.210;2022-12-18T11:53:18;17.50;;;12.23;;
2966;SDS011;1493;51.496;7.210;2022-12-18T11:55:49;19.03;;;13.47;;
2966;SDS011;1493;51.496;7.210;2022-12-18T11:58:29;18.47;;;13.13;;
2966;SDS011;1493;51.496;7.210;2022-12-18T12:01:10;19.30;;;12.97;;
2966;SDS011;1493;51.496;7.210;2022-12-18T12:03:55;21.90;;;12.80;;
2966;SDS011;1493;51.496;7.210;2022-12-18T12:06:31;17.57;;;12.07;;
2966;SDS011;1493;51.496;7.210;2022-12-18T12:09:08;18.17;;;10.80;;
2966;SDS011;1493;51.496;7.210;2022-12-18T12:11:47;20.40;;;11.30;;
2966;SDS011;1493;51.496;7.210;2022-12-18T12:14:32;26.87;;;15.80;;
2966;SDS011;1493;51.496;7.210;2022-12-18T12:17:09;19.97;;;14.30;;
2966;SDS011;1493;51.496;7.210;2022-12-18T12:19:46;23.87;;;15.47;;
2966;SDS011;1493;51.496;7.210;2022-12-18T12:22:22;23.20;;;15.53;;
2966;SDS011;1493;51.496;7.210;2022-12-18T12:24:58;26.52;;;15.02;;
2966;SDS011;1493;51.496;7.210;2022-12-18T12:27:40;17.83;;;12.70;;
2966;SDS011;1493;51.496;7.210;2022-12-18T12:30:16;20.27;;;13.63;;
2966;SDS011;1493;51.496;7.210;2022-12-18T12:32:53;23.90;;;14.43;;
2966;SDS011;1493;51.496;7.210;2022-12-18T12:35:32;17.90;;;12.80;;
2966;SDS011;1493;51.496;7.210;2022-12-18T12:38:10;15.07;;;11.97;;
2966;SDS011;1493;51.496;7.210;2022-12-18T12:40:41;15.13;;;10.77;;
2966;SDS011;1493;51.496;7.210;2022-12-18T12:43:20;19.53;;;11.30;;
2966;SDS011;1493;51.496;7.210;2022-12-18T12:45:50;17.13;;;11.00;;
2966;SDS011;1493;51.496;7.210;2022-12-18T12:48:27;18.27;;;10.10;;
2966;SDS011;1493;51.496;7.210;2022-12-18T12:51:07;18.50;;;9.30;;
2966;SDS011;1493;51.496;7.210;2022-12-18T12:53:39;12.20;;;8.03;;
2966;SDS011;1493;51.496;7.210;2022-12-18T12:56:07;12.50;;;7.77;;
2966;SDS011;1493;51.496;7.210;2022-12-18T12:58:38;11.13;;;6.73;;
2966;SDS011;1493;51.496;7.210;2022-12-18T13:01:14;8.63;;;6.20;;
2966;SDS011;1493;51.496;7.210;2022-12-18T13:03:52;8.93;;;5.33;;
2966;SDS011;1493;51.496;7.210;2022-12-18T13:06:27;8.90;;;6.17;;
2966;SDS011;1493;51.496;7.210;2022-12-18T13:09:03;5.90;;;3.30;;
2966;SDS011;1493;51.496;7.210;2022-12-18T13:11:37;6.50;;;3.30;;
2966;SDS011;1493;51.496;7.210;2022-12-18T13:14:24;8.40;;;3.60;;
2966;SDS011;1493;51.496;7.210;2022-12-18T13:17:15;6.17;;;3.93;;
2966;SDS011;1493;51.496;7.210;2022-12-18T13:19:50;6.57;;;3.50;;
2966;SDS011;1493;51.496;7.210;2022-12-18T13:22:22;6.63;;;3.40;;
2966;SDS011;1493;51.496;7.210;2022-12-18T13:24:51;7.27;;;3.40;;
2966;SDS011;1493;51.496;7.210;2022-12-18T13:30:41;7.60;;;4.50;;
2966;SDS011;1493;51.496;7.210;2022-12-18T13:36:11;7.27;;;4.00;;
2966;SDS011;1493;51.496;7.210;2022-12-18T13:38:41;5.13;;;3.60;;
2966;SDS011;1493;51.496;7.210;2022-12-18T13:41:23;6.80;;;3.70;;
2966;SDS011;1493;51.496;7.210;2022-12-18T13:43:52;7.23;;;3.90;;
2966;SDS011;1493;51.496;7.210;2022-12-18T13:46:20;8.00;;;4.10;;
2966;SDS011;1493;51.496;7.210;2022-12-18T13:48:53;7.20;;;3.57;;
2966;SDS011;1493;51.496;7.210;2022-12-18T13:51:24;10.13;;;4.30;;
2966;SDS011;1493;51.496;7.210;2022-12-18T13:53:53;8.15;;;4.55;;
2966;SDS011;1493;51.496;7.210;2022-12-18T13:56:25;5.87;;;3.30;;
2966;SDS011;1493;51.496;7.210;2022-12-18T13:59:12;8.23;;;4.10;;
2966;SDS011;1493;51.496;7.210;2022-12-18T14:01:51;7.33;;;3.93;;
2966;SDS011;1493;51.496;7.210;2022-12-18T14:04:24;9.93;;;4.90;;
2966;SDS011;1493;51.496;7.210;2022-12-18T14:06:58;9.05;;;4.88;;
2966;SDS011;1493;51.496;7.210;2022-12-18T14:09:30;9.97;;;4.77;;
2966;SDS011;1493;51.496;7.210;2022-12-18T14:12:02;7.87;;;3.87;;
2966;SDS011;1493;51.496;7.210;2022-12-18T14:14:44;7.80;;;4.00;;
2966;SDS011;1493;51.496;7.210;2022-12-18T14:17:13;12.97;;;5.00;;
2966;SDS011;1493;51.496;7.210;2022-12-18T14:19:42;9.40;;;5.20;;
2966;SDS011;1493;51.496;7.210;2022-12-18T14:22:17;8.87;;;5.57;;
2966;SDS011;1493;51.496;7.210;2022-12-18T14:24:46;10.70;;;5.37;;
2966;SDS011;1493;51.496;7.210;2022-12-18T14:27:21;12.27;;;4.60;;
2966;SDS011;1493;51.496;7.210;2022-12-18T14:29:50;9.13;;;4.90;;
2966;SDS011;1493;51.496;7.210;2022-12-18T14:32:18;9.30;;;5.03;;
2966;SDS011;1493;51.496;7.210;2022-12-18T14:34:46;7.77;;;4.97;;
2966;SDS011;1493;51.496;7.210;2022-12-18T14:37:15;11.13;;;5.65;;
2966;SDS011;1493;51.496;7.210;2022-12-18T14:39:53;10.93;;;5.70;;
2966;SDS011;1493;51.496;7.210;2022-12-18T14:42:23;8.43;;;5.73;;
2966;SDS011;1493;51.496;7.210;2022-12-18T14:47:53;9.97;;;5.77;;
2966;SDS011;1493;51.496;7.210;2022-12-18T14:50:20;10.20;;;5.60;;
2966;SDS011;1493;51.496;7.210;2022-12-18T14:52:49;9.40;;;5.50;;
2966;SDS011;1493;51.496;7.210;2022-12-18T14:55:17;9.80;;;5.43;;
2966;SDS011;1493;51.496;7.210;2022-12-18T14:57:46;9.80;;;5.85;;
2966;SDS011;1493;51.496;7.210;2022-12-18T15:00:19;9.27;;;5.17;;
2966;SDS011;1493;51.496;7.210;2022-12-18T15:02:48;8.93;;;5.07;;
2966;SDS011;1493;51.496;7.210;2022-12-18T15:05:19;14.90;;;6.17;;
2966;SDS011;1493;51.496;7.210;2022-12-18T15:07:48;9.83;;;5.50;;
2966;SDS011;1493;51.496;7.210;2022-12-18T15:10:17;10.90;;;7.30;;
2966;SDS011;1493;51.496;7.210;2022-12-18T15:12:46;11.63;;;5.43;;
2966;SDS011;1493;51.496;7.210;2022-12-18T15:18:14;10.40;;;6.57;;
2966;SDS011;1493;51.496;7.210;2022-12-18T15:20:45;11.87;;;7.00;;
2966;SDS011;1493;51.496;7.210;2022-12-18T15:23:15;14.37;;;6.47;;
2966;SDS011;1493;51.496;7.210;2022-12-18T15:25:44;12.00;;;6.78;;
2966;SDS011;1493;51.496;7.210;2022-12-18T15:28:19;16.67;;;7.65;;
2966;SDS011;1493;51.496;7.210;2022-12-18T15:31:17;10.87;;;6.57;;
2966;SDS011;1493;51.496;7.210;2022-12-18T15:34:08;12.43;;;6.55;;
2966;SDS011;1493;51.496;7.210;2022-12-18T15:36:37;12.15;;;7.00;;